Time;durP1;ratioP1;P1;durP2;ratioP2;P2;SDS_P1;SDS_P2;PMS_P1;PMS_P2;Temp;Humidity;BMP_temperature;BMP_pressure;BME280_temperature;BME280_humidity;BME280_pressure;Samples;Min_cycle;Max_cycle;Signal;HPM_P1;HPM_P2
2021/07/12 00:00:23;;;;;;;6.22;4.93;;;23.00;87.10;;;;;;5053585;28;20025;-68
2021/07/12 00:03:09;;;;;;;6.53;5.10;;;23.00;87.50;;;;;;5067240;28;20507;-68
2021/07/12 00:05:54;;;;;;;5.93;5.00;;;23.00;87.70;;;;;;5072522;28;20024;-68
2021/07/12 00:08:40;;;;;;;7.10;5.00;;;23.00;88.00;;;;;;5072602;28;20039;-68
2021/07/12 00:11:27;;;;;;;6.53;5.22;;;22.90;88.30;;;;;;5073123;28;20028;-68
2021/07/12 00:14:13;;;;;;;7.18;4.60;;;22.90;88.60;;;;;;5053605;28;20067;-68
2021/07/12 00:16:59;;;;;;;7.32;4.88;;;22.90;88.80;;;;;;5057692;28;20017;-68
2021/07/12 00:19:45;;;;;;;6.07;5.47;;;22.80;89.10;;;;;;5058874;28;20028;-68
2021/07/12 00:22:31;;;;;;;6.70;4.90;;;22.80;89.40;;;;;;5064756;28;20032;-69
2021/07/12 00:25:18;;;;;;;5.45;4.72;;;22.80;89.70;;;;;;5052923;28;20045;-69
2021/07/12 00:28:06;;;;;;;5.88;5.05;;;22.80;89.90;;;;;;5065574;28;20017;-68
2021/07/12 00:30:52;;;;;;;5.63;4.80;;;22.80;90.10;;;;;;5073565;28;20442;-69
2021/07/12 00:33:39;;;;;;;8.18;4.82;;;22.70;90.10;;;;;;5053121;28;20060;-68
2021/07/12 00:36:25;;;;;;;5.95;5.35;;;22.70;90.40;;;;;;5053506;28;20066;-68
2021/07/12 00:39:11;;;;;;;6.43;5.30;;;22.70;90.60;;;;;;5054116;28;20029;-68
2021/07/12 00:41:57;;;;;;;6.22;4.78;;;22.60;90.70;;;;;;5058183;28;20171;-68
2021/07/12 00:44:43;;;;;;;5.20;4.70;;;22.60;90.70;;;;;;5070259;28;20044;-67
2021/07/12 00:47:29;;;;;;;6.03;4.93;;;22.60;90.80;;;;;;5062399;28;20033;-67
2021/07/12 00:50:16;;;;;;;4.93;4.43;;;22.60;90.90;;;;;;5073660;28;20021;-67
2021/07/12 00:53:04;;;;;;;7.10;5.03;;;22.60;91.20;;;;;;5058487;28;20116;-67
2021/07/12 00:55:50;;;;;;;5.65;4.60;;;22.60;91.00;;;;;;5053173;28;20112;-68
2021/07/12 00:58:36;;;;;;;7.03;5.50;;;22.60;91.10;;;;;;5070663;28;20028;-69
2021/07/12 01:01:22;;;;;;;6.00;4.90;;;22.60;91.20;;;;;;5072542;28;20021;-68
2021/07/12 01:04:08;;;;;;;5.68;4.82;;;22.60;91.20;;;;;;5052673;28;20025;-68
2021/07/12 01:06:54;;;;;;;6.40;5.30;;;22.50;91.30;;;;;;5057266;28;20040;-68
2021/07/12 01:09:40;;;;;;;6.72;5.15;;;22.50;91.40;;;;;;5071935;28;20024;-68
2021/07/12 01:13:05;;;;;;;6.25;5.28;;;22.50;91.50;;;;;;5070945;28;20443;-68
2021/07/12 01:15:59;;;;;;;13.65;5.43;;;22.50;91.50;;;;;;5072073;28;20098;-68
2021/07/12 01:18:51;;;;;;;6.93;5.70;;;22.50;91.60;;;;;;5053746;28;20029;-68
2021/07/12 01:22:12;;;;;;;5.13;4.60;;;22.50;91.70;;;;;;5055438;28;20049;-68
2021/07/12 01:25:28;;;;;;;5.70;5.07;;;22.40;91.70;;;;;;5053063;28;20048;-69
2021/07/12 01:28:49;;;;;;;6.25;4.82;;;22.40;91.90;;;;;;5053197;28;20028;-68
2021/07/12 01:32:11;;;;;;;5.97;5.38;;;22.40;91.80;;;;;;5068226;28;20495;-69
2021/07/12 01:35:04;;;;;;;6.00;5.18;;;22.40;91.90;;;;;;5070507;28;20518;-68
2021/07/12 01:38:19;;;;;;;6.03;5.43;;;22.40;92.10;;;;;;5052736;28;20031;-69
2021/07/12 01:41:31;;;;;;;6.53;5.07;;;22.40;92.10;;;;;;5064664;28;20031;-68
2021/07/12 01:44:41;;;;;;;6.90;5.30;;;22.30;92.10;;;;;;5034215;28;20048;-68
2021/07/12 01:47:33;;;;;;;6.20;5.20;;;22.30;92.20;;;;;;5053330;28;20393;-68
2021/07/12 01:50:22;;;;;;;6.32;5.72;;;22.30;92.30;;;;;;5064021;28;20062;-68
2021/07/12 01:53:15;;;;;;;9.55;5.68;;;22.30;92.40;;;;;;5084012;28;20039;-68
2021/07/12 01:56:08;;;;;;;6.05;5.30;;;22.30;92.40;;;;;;5074608;28;20036;-68
2021/07/12 01:59:16;;;;;;;6.28;5.68;;;22.40;92.50;;;;;;5064872;28;20112;-68
2021/07/12 02:02:04;;;;;;;6.75;6.05;;;22.30;92.40;;;;;;5083553;28;20038;-68
2021/07/12 02:04:52;;;;;;;5.97;5.20;;;22.30;92.70;;;;;;5080781;28;20145;-68
2021/07/12 02:07:37;;;;;;;7.82;5.70;;;22.30;92.70;;;;;;5080057;28;20055;-69
2021/07/12 02:10:26;;;;;;;7.28;5.90;;;22.30;92.80;;;;;;5071251;28;20078;-68
2021/07/12 02:13:12;;;;;;;7.35;6.65;;;22.20;92.80;;;;;;5071668;28;20503;-68
2021/07/12 02:16:00;;;;;;;6.65;5.85;;;22.30;92.90;;;;;;5071023;28;20556;-68
2021/07/12 02:18:46;;;;;;;6.20;5.60;;;22.20;92.90;;;;;;5070895;28;20142;-68
2021/07/12 02:21:33;;;;;;;8.80;5.93;;;22.20;93.00;;;;;;5070615;28;20039;-68
2021/07/12 02:24:20;;;;;;;7.30;5.93;;;22.20;93.10;;;;;;5057190;28;20426;-68
2021/07/12 02:27:04;;;;;;;7.10;6.40;;;22.20;93.00;;;;;;5071332;28;20077;-68
2021/07/12 02:29:49;;;;;;;;;;;22.20;93.10;;;;;;5071402;28;20031;-68
2021/07/12 02:32:36;;;;;;;5.97;5.37;;;22.20;92.60;;;;;;5071643;28;19935;-68
2021/07/12 02:35:21;;;;;;;7.30;6.18;;;22.20;93.10;;;;;;5070713;28;20035;-68
2021/07/12 02:38:08;;;;;;;6.40;5.80;;;22.10;93.20;;;;;;5071646;28;20082;-68
2021/07/12 02:40:53;;;;;;;7.30;6.60;;;22.20;93.20;;;;;;5070294;28;20105;-68
2021/07/12 02:43:38;;;;;;;7.95;5.70;;;22.20;93.40;;;;;;5071421;28;20050;-68
2021/07/12 02:46:23;;;;;;;7.75;5.70;;;22.20;93.40;;;;;;5056659;28;20048;-68
2021/07/12 02:49:08;;;;;;;6.55;5.85;;;22.20;93.50;;;;;;5046607;28;20035;-68
2021/07/12 02:51:55;;;;;;;8.52;6.47;;;22.10;93.60;;;;;;5052478;28;20052;-68
2021/07/12 02:54:42;;;;;;;7.03;6.32;;;22.10;93.60;;;;;;5051336;28;20028;-68
2021/07/12 02:57:27;;;;;;;6.95;6.30;;;22.10;93.70;;;;;;5051500;28;20055;-68
2021/07/12 03:00:12;;;;;;;7.35;6.13;;;22.10;93.80;;;;;;5051779;28;20040;-68
2021/07/12 03:02:57;;;;;;;6.88;5.95;;;22.10;93.90;;;;;;5051256;28;20066;-68
2021/07/12 03:05:41;;;;;;;7.63;6.30;;;22.10;93.90;;;;;;5059970;28;20054;-68
2021/07/12 03:08:37;;;;;;;7.50;5.93;;;22.10;93.90;;;;;;5071184;28;20064;-68
2021/07/12 03:11:25;;;;;;;8.70;6.38;;;22.10;94.20;;;;;;5068650;28;20039;-68
2021/07/12 03:14:29;;;;;;;7.25;6.55;;;22.10;94.00;;;;;;5056073;28;20528;-67
2021/07/12 03:17:14;;;;;;;8.07;6.30;;;22.10;94.20;;;;;;5070493;28;20067;-68
2021/07/12 03:20:00;;;;;;;6.72;6.03;;;22.00;94.10;;;;;;5069163;28;20439;-67
2021/07/12 03:22:29;;;;;;;7.50;6.70;;;22.00;94.10;;;;;;5070887;28;20046;-67
2021/07/12 03:25:16;;;;;;;7.45;6.45;;;22.10;94.20;;;;;;5070083;28;20132;-67
2021/07/12 03:28:04;;;;;;;9.25;6.30;;;22.00;94.30;;;;;;5070063;28;20395;-67
2021/07/12 03:30:51;;;;;;;9.32;6.22;;;22.10;94.30;;;;;;5060158;28;20027;-67
2021/07/12 03:33:38;;;;;;;7.07;6.38;;;22.10;94.30;;;;;;5036369;28;20033;-67
2021/07/12 03:36:28;;;;;;;8.10;6.80;;;22.10;94.40;;;;;;5065081;28;20025;-67
2021/07/12 03:39:15;;;;;;;7.35;6.65;;;22.00;94.40;;;;;;5070763;28;20017;-67
2021/07/12 03:42:01;;;;;;;7.38;6.68;;;22.00;94.40;;;;;;5070308;28;20423;-67
2021/07/12 03:44:47;;;;;;;9.02;7.18;;;22.00;94.50;;;;;;5067745;28;20033;-68
2021/07/12 03:47:35;;;;;;;6.75;6.13;;;22.00;94.60;;;;;;5054680;28;20491;-67
2021/07/12 03:50:24;;;;;;;7.28;6.57;;;22.00;94.70;;;;;;5069374;28;20024;-67
2021/07/12 03:53:10;;;;;;;7.03;6.35;;;21.90;94.70;;;;;;5068115;28;20033;-67
2021/07/12 03:55:56;;;;;;;7.90;7.10;;;22.00;94.70;;;;;;5061045;28;20396;-67
2021/07/12 03:58:43;;;;;;;8.60;6.35;;;22.00;94.80;;;;;;5070131;28;20024;-68
2021/07/12 04:01:28;;;;;;;8.95;8.05;;;21.90;94.80;;;;;;5053615;28;20116;-67
2021/07/12 04:04:14;;;;;;;7.40;6.70;;;22.00;94.80;;;;;;5050450;28;20492;-69
2021/07/12 04:07:00;;;;;;;6.88;6.18;;;22.00;94.90;;;;;;5069879;28;20041;-68
2021/07/12 04:09:46;;;;;;;7.55;6.85;;;22.00;94.90;;;;;;5067776;28;20024;-68
2021/07/12 04:12:32;;;;;;;8.75;6.80;;;22.00;94.80;;;;;;5050193;28;20079;-68
2021/07/12 04:15:18;;;;;;;7.30;6.35;;;22.10;94.90;;;;;;5055695;28;20027;-68
2021/07/12 04:18:05;;;;;;;9.57;6.80;;;22.10;94.80;;;;;;5067219;28;20028;-68
2021/07/12 04:20:51;;;;;;;8.48;6.70;;;22.10;94.80;;;;;;5069108;28;20033;-68
2021/07/12 04:23:37;;;;;;;7.50;6.80;;;22.10;94.80;;;;;;5072370;28;20500;-68
2021/07/12 04:26:22;;;;;;;9.07;7.00;;;22.10;94.80;;;;;;5071802;28;20055;-68
2021/07/12 04:29:08;;;;;;;6.57;5.95;;;22.10;94.80;;;;;;5073882;28;20017;-68
2021/07/12 04:31:56;;;;;;;7.40;6.63;;;22.20;94.80;;;;;;5071403;28;20025;-68
2021/07/12 04:34:42;;;;;;;7.03;6.32;;;22.20;94.80;;;;;;5072412;28;20032;-68
2021/07/12 04:37:28;;;;;;;8.50;7.25;;;22.20;94.70;;;;;;5061247;28;20032;-68
2021/07/12 04:40:14;;;;;;;8.43;6.95;;;22.20;94.70;;;;;;5068735;28;20082;-68
2021/07/12 04:43:00;;;;;;;6.97;6.38;;;22.20;95.00;;;;;;5052767;28;20025;-68
2021/07/12 04:45:45;;;;;;;8.02;6.88;;;22.20;94.80;;;;;;5060413;28;20036;-68
2021/07/12 04:48:31;;;;;;;7.55;6.85;;;22.30;94.80;;;;;;5068269;28;20120;-69
2021/07/12 04:51:17;;;;;;;7.85;6.78;;;22.30;94.80;;;;;;5072140;28;20036;-69
2021/07/12 04:54:03;;;;;;;9.60;7.60;;;22.30;94.90;;;;;;5073700;28;20521;-68
2021/07/12 04:56:49;;;;;;;7.38;6.70;;;22.30;94.80;;;;;;5072221;28;20028;-69
2021/07/12 04:59:39;;;;;;;8.23;7.40;;;22.30;94.80;;;;;;5071274;28;20172;-69
2021/07/12 05:02:25;;;;;;;8.07;7.28;;;22.40;94.90;;;;;;5072079;28;20567;-69
2021/07/12 05:05:12;;;;;;;8.38;7.57;;;22.40;94.90;;;;;;5068423;28;20029;-69
2021/07/12 05:07:58;;;;;;;7.65;6.95;;;22.40;94.90;;;;;;5052612;28;20036;-70
2021/07/12 05:10:44;;;;;;;8.60;7.72;;;22.40;94.90;;;;;;5060117;28;20134;-69
2021/07/12 05:13:31;;;;;;;8.52;7.47;;;22.40;94.90;;;;;;5072149;28;20066;-69
2021/07/12 05:16:17;;;;;;;9.05;7.22;;;22.40;94.90;;;;;;5071420;28;20043;-69
2021/07/12 05:19:03;;;;;;;8.90;8.10;;;22.50;94.90;;;;;;5073725;28;20056;-69
2021/07/12 05:21:49;;;;;;;8.40;7.47;;;22.50;94.90;;;;;;5060815;28;20051;-69
2021/07/12 05:24:33;;;;;;;10.30;7.50;;;22.50;95.00;;;;;;5052622;28;20068;-69
2021/07/12 05:27:17;;;;;;;;;;;22.50;94.90;;;;;;5038531;28;20105;-69
2021/07/12 05:30:01;;;;;;;7.95;7.13;;;22.50;94.60;;;;;;5056181;28;19911;-68
2021/07/12 05:32:45;;;;;;;8.43;6.90;;;22.50;94.90;;;;;;5072465;28;20047;-68
2021/07/12 05:35:29;;;;;;;7.70;7.00;;;22.50;94.90;;;;;;5065507;28;20055;-69
2021/07/12 05:38:14;;;;;;;8.52;7.50;;;22.50;95.00;;;;;;5052987;28;20437;-68
2021/07/12 05:40:58;;;;;;;8.75;7.85;;;22.50;95.00;;;;;;5063683;28;20039;-69
2021/07/12 05:43:42;;;;;;;9.55;7.88;;;22.50;95.10;;;;;;5072623;28;20051;-69
2021/07/12 05:46:26;;;;;;;7.40;6.80;;;22.50;95.10;;;;;;5067146;28;20433;-68
2021/07/12 05:49:10;;;;;;;8.15;7.35;;;22.50;95.20;;;;;;5071772;28;20044;-69
2021/07/12 05:51:54;;;;;;;9.13;8.10;;;22.50;95.20;;;;;;5071108;28;20082;-68
2021/07/12 05:54:38;;;;;;;9.27;7.85;;;22.50;95.30;;;;;;5071649;28;20031;-70
2021/07/12 05:57:22;;;;;;;13.45;7.82;;;22.50;95.30;;;;;;5071722;28;20043;-70
2021/07/12 06:00:09;;;;;;;13.00;8.18;;;22.50;95.60;;;;;;5073268;28;20035;-68
2021/07/12 06:02:53;;;;;;;11.60;7.78;;;22.50;95.70;;;;;;5073611;28;20181;-64
2021/07/12 06:05:37;;;;;;;13.25;8.15;;;22.60;95.60;;;;;;5065301;28;20575;-63
2021/07/12 06:08:21;;;;;;;9.48;8.23;;;22.60;95.50;;;;;;5047536;28;20039;-62
2021/07/12 06:11:07;;;;;;;11.48;7.85;;;22.60;95.70;;;;;;5066369;28;20054;-64
2021/07/12 06:13:52;;;;;;;11.13;8.15;;;22.60;95.60;;;;;;5069556;28;20063;-64
2021/07/12 06:16:36;;;;;;;10.48;8.63;;;22.60;95.70;;;;;;5068491;28;20369;-64
2021/07/12 06:19:20;;;;;;;9.10;7.18;;;22.60;95.70;;;;;;5054075;28;20036;-65
2021/07/12 06:22:04;;;;;;;10.18;7.47;;;22.60;95.70;;;;;;5062615;28;20043;-65
2021/07/12 06:24:48;;;;;;;9.88;6.80;;;22.60;95.70;;;;;;5065654;28;20059;-65
2021/07/12 06:27:32;;;;;;;7.63;6.85;;;22.60;95.60;;;;;;5063791;28;20102;-65
2021/07/12 06:30:17;;;;;;;9.85;8.02;;;22.70;95.40;;;;;;5063492;28;20035;-65
2021/07/12 06:33:02;;;;;;;7.00;6.30;;;22.80;95.50;;;;;;5065716;28;20166;-65
2021/07/12 06:35:46;;;;;;;;;;;22.90;95.30;;;;;;5061863;28;20487;-65
2021/07/12 06:38:31;;;;;;;8.77;7.88;;;22.90;95.20;;;;;;5063523;28;19915;-66
2021/07/12 06:41:16;;;;;;;9.10;8.10;;;23.00;95.20;;;;;;5062963;28;20024;-66
2021/07/12 06:44:00;;;;;;;7.82;6.93;;;23.00;95.30;;;;;;5062593;28;20059;-65
2021/07/12 06:46:44;;;;;;;14.68;8.00;;;23.00;95.20;;;;;;5067595;28;20086;-66
2021/07/12 06:49:28;;;;;;;8.38;7.55;;;23.10;95.30;;;;;;5069153;28;20039;-66
2021/07/12 06:52:12;;;;;;;9.60;8.63;;;23.20;95.20;;;;;;5066042;28;20174;-66
2021/07/12 06:54:56;;;;;;;9.00;8.15;;;23.30;95.00;;;;;;5060139;28;20039;-66
2021/07/12 06:57:40;;;;;;;8.52;7.60;;;23.40;94.70;;;;;;5061638;28;20040;-66
2021/07/12 07:00:24;;;;;;;10.00;8.48;;;23.40;94.60;;;;;;5066797;28;20059;-66
2021/07/12 07:03:09;;;;;;;11.80;8.30;;;23.50;94.60;;;;;;5057878;28;20404;-66
2021/07/12 07:05:53;;;;;;;8.73;7.43;;;23.60;94.70;;;;;;5062342;28;20125;-66
2021/07/12 07:08:37;;;;;;;8.73;7.93;;;23.60;94.40;;;;;;5068166;28;20106;-66
2021/07/12 07:11:21;;;;;;;8.90;7.75;;;23.70;94.30;;;;;;5061507;28;20521;-66
2021/07/12 07:14:05;;;;;;;7.63;6.68;;;23.80;94.30;;;;;;5060368;28;20671;-67
2021/07/12 07:16:49;;;;;;;9.07;6.60;;;24.00;94.00;;;;;;5064522;28;20030;-67
2021/07/12 07:19:33;;;;;;;8.13;7.22;;;24.10;93.80;;;;;;5059503;28;20044;-67
2021/07/12 07:22:17;;;;;;;7.80;7.10;;;24.30;93.80;;;;;;5043631;28;20039;-67
2021/07/12 07:25:02;;;;;;;7.32;6.63;;;24.30;93.70;;;;;;5065177;28;20592;-67
2021/07/12 07:27:47;;;;;;;8.82;6.35;;;24.40;93.70;;;;;;5058340;28;20063;-66
2021/07/12 07:30:35;;;;;;;7.57;6.88;;;24.50;93.30;;;;;;5062475;28;20400;-67
2021/07/12 07:33:25;;;;;;;7.80;7.03;;;24.60;93.20;;;;;;5061304;28;20623;-66
2021/07/12 07:36:11;;;;;;;6.75;5.60;;;24.70;93.00;;;;;;5066322;28;20043;-66
2021/07/12 07:38:57;;;;;;;7.18;6.47;;;24.80;92.60;;;;;;5058209;28;20028;-68
2021/07/12 07:41:42;;;;;;;7.25;6.55;;;25.00;92.20;;;;;;5059966;28;20029;-68
2021/07/12 07:44:28;;;;;;;7.65;6.95;;;25.00;92.10;;;;;;5062810;28;20380;-67
2021/07/12 07:47:15;;;;;;;6.95;6.25;;;25.10;92.30;;;;;;5055726;28;20511;-68
2021/07/12 07:50:01;;;;;;;6.50;5.60;;;25.20;92.00;;;;;;5062556;28;20032;-68
2021/07/12 07:52:47;;;;;;;7.70;5.72;;;25.30;91.90;;;;;;5063535;28;20048;-67
2021/07/12 07:55:34;;;;;;;6.53;5.90;;;25.30;91.30;;;;;;5067549;28;20060;-68
2021/07/12 07:58:19;;;;;;;7.53;6.43;;;25.30;91.10;;;;;;5059553;28;20029;-68
2021/07/12 08:01:05;;;;;;;6.55;5.95;;;25.30;91.20;;;;;;5059202;28;20370;-68
2021/07/12 08:03:51;;;;;;;6.70;6.10;;;25.30;91.10;;;;;;5069279;28;20035;-68
2021/07/12 08:06:37;;;;;;;7.45;5.95;;;25.30;91.10;;;;;;5068671;28;20044;-69
2021/07/12 08:09:23;;;;;;;6.93;6.30;;;25.40;91.30;;;;;;5061467;28;20455;-69
2021/07/12 08:12:09;;;;;;;7.82;7.03;;;25.40;91.30;;;;;;5063859;28;20411;-69
2021/07/12 08:14:55;;;;;;;7.00;6.38;;;25.30;91.00;;;;;;5063528;28;20563;-69
2021/07/12 08:17:41;;;;;;;7.85;6.43;;;25.30;91.10;;;;;;5065431;28;20032;-67
2021/07/12 08:20:27;;;;;;;7.07;6.07;;;25.40;91.20;;;;;;5066247;28;20033;-69
2021/07/12 08:23:13;;;;;;;7.93;6.63;;;25.30;91.00;;;;;;5069815;28;20033;-69
2021/07/12 08:25:59;;;;;;;6.85;6.15;;;25.30;90.60;;;;;;5060992;28;20086;-69
2021/07/12 08:28:45;;;;;;;7.28;5.93;;;25.40;91.10;;;;;;5066812;28;20097;-69
2021/07/12 08:31:31;;;;;;;6.45;5.85;;;25.40;90.60;;;;;;5061335;28;20028;-69
2021/07/12 08:34:16;;;;;;;6.47;5.80;;;25.40;90.30;;;;;;5064332;28;20500;-69
2021/07/12 08:37:02;;;;;;;6.80;6.10;;;25.40;90.40;;;;;;5071675;28;20039;-69
2021/07/12 08:39:48;;;;;;;10.43;6.85;;;25.40;90.40;;;;;;5059470;28;20021;-68
2021/07/12 08:42:34;;;;;;;7.88;7.18;;;25.40;90.30;;;;;;5040906;28;20036;-69
2021/07/12 08:45:21;;;;;;;8.63;6.30;;;25.40;90.40;;;;;;5061582;28;20029;-69
2021/07/12 08:48:06;;;;;;;7.82;7.07;;;25.50;90.40;;;;;;5058938;28;20426;-69
2021/07/12 08:50:52;;;;;;;7.50;6.63;;;25.50;90.40;;;;;;5051526;28;20400;-68
2021/07/12 08:53:38;;;;;;;8.32;7.32;;;25.50;90.20;;;;;;5050012;28;20045;-68
2021/07/12 08:56:24;;;;;;;9.30;8.23;;;25.60;90.10;;;;;;5066583;28;20079;-68
2021/07/12 08:59:41;;;;;;;9.13;8.32;;;25.60;90.00;;;;;;5066576;28;20111;-68
2021/07/12 09:02:28;;;;;;;9.35;8.45;;;25.70;90.00;;;;;;5055145;28;20315;-68
2021/07/12 09:05:14;;;;;;;17.35;8.95;;;25.70;90.40;;;;;;5064184;28;20040;-68
2021/07/12 09:08:00;;;;;;;8.68;7.88;;;25.80;90.10;;;;;;5068558;28;20032;-68
2021/07/12 09:10:46;;;;;;;9.77;8.52;;;25.90;90.30;;;;;;5063929;28;20052;-68
2021/07/12 09:13:43;;;;;;;9.68;8.77;;;25.90;90.30;;;;;;5057472;28;20048;-68
2021/07/12 09:16:41;;;;;;;8.95;8.15;;;26.00;89.10;;;;;;5067346;28;20099;-68
2021/07/12 09:19:32;;;;;;;8.38;7.53;;;26.00;88.90;;;;;;5062249;28;20444;-67
2021/07/12 09:22:18;;;;;;;8.63;7.90;;;26.00;88.80;;;;;;5050062;28;20028;-68
2021/07/12 09:25:09;;;;;;;9.07;7.90;;;26.10;88.80;;;;;;5065683;28;20051;-68
2021/07/12 09:27:56;;;;;;;9.35;8.13;;;26.30;88.70;;;;;;5058904;28;20051;-68
2021/07/12 09:30:40;;;;;;;8.57;7.88;;;26.40;88.30;;;;;;5064015;28;20028;-67
2021/07/12 09:33:24;;;;;;;9.00;8.23;;;26.40;88.00;;;;;;5070577;28;20075;-69
2021/07/12 09:36:17;;;;;;;8.80;7.90;;;26.50;88.70;;;;;;5066471;28;20120;-69
2021/07/12 09:39:25;;;;;;;9.50;8.60;;;26.60;88.00;;;;;;5063820;28;20102;-69
2021/07/12 09:42:31;;;;;;;20.13;9.05;;;26.60;86.20;;;;;;5052599;28;20040;-71
2021/07/12 09:45:23;;;;;;;32.38;9.48;;;26.60;86.70;;;;;;5064563;28;20112;-66
2021/07/12 09:48:07;;;;;;;8.65;7.82;;;26.60;86.30;;;;;;5070233;28;20657;-67
2021/07/12 09:50:53;;;;;;;9.38;8.30;;;26.60;87.60;;;;;;5061521;28;20040;-65
2021/07/12 09:53:38;;;;;;;9.00;8.10;;;26.70;87.20;;;;;;5069431;28;20047;-66
2021/07/12 09:56:26;;;;;;;9.38;8.57;;;26.80;86.60;;;;;;5061760;28;20052;-65
2021/07/12 09:59:14;;;;;;;10.45;9.02;;;26.90;86.50;;;;;;5063235;28;20032;-64
2021/07/12 10:01:59;;;;;;;9.20;8.35;;;26.90;86.70;;;;;;5071681;28;20495;-65
2021/07/12 10:04:43;;;;;;;;;;;27.00;85.80;;;;;;5052021;28;20036;-66
2021/07/12 10:07:28;;;;;;;10.20;7.97;;;27.00;84.90;;;;;;5072702;28;19934;-65
2021/07/12 10:10:15;;;;;;;8.20;7.50;;;27.10;85.90;;;;;;5072307;28;20054;-65
2021/07/12 10:13:00;;;;;;;9.73;8.85;;;27.20;84.80;;;;;;5072415;28;20212;-66
2021/07/12 10:15:46;;;;;;;10.38;8.43;;;27.30;85.50;;;;;;5070602;28;20048;-65
2021/07/12 10:18:30;;;;;;;8.82;8.02;;;27.40;83.50;;;;;;5071314;28;20508;-65
2021/07/12 10:21:15;;;;;;;9.68;8.05;;;27.30;83.10;;;;;;5072522;28;20028;-66
2021/07/12 10:23:59;;;;;;;;;;;27.30;83.70;;;;;;5072620;28;20166;-66
2021/07/12 10:26:48;;;;;;;8.88;8.15;;;27.20;83.70;;;;;;5072176;28;20390;-65
2021/07/12 10:29:36;;;;;;;8.60;7.80;;;27.30;83.70;;;;;;5072433;28;20090;-66
2021/07/12 10:32:26;;;;;;;8.25;7.55;;;27.30;83.90;;;;;;5054995;28;20079;-65
2021/07/12 10:35:11;;;;;;;8.35;7.13;;;27.30;83.40;;;;;;5064100;28;20102;-64
2021/07/12 10:37:59;;;;;;;8.30;6.45;;;27.50;82.80;;;;;;5052127;28;20040;-66
2021/07/12 10:40:57;;;;;;;7.35;6.65;;;27.50;81.90;;;;;;5065967;28;20085;-66
2021/07/12 10:43:57;;;;;;;7.15;6.45;;;27.60;82.00;;;;;;5071659;28;20067;-66
2021/07/12 10:46:42;;;;;;;8.75;7.95;;;27.50;81.40;;;;;;5071417;28;20404;-66
2021/07/12 10:49:32;;;;;;;7.45;6.75;;;27.40;81.90;;;;;;5055551;28;20081;-66
2021/07/12 10:52:42;;;;;;;7.57;6.88;;;27.40;81.40;;;;;;5068739;28;20503;-67
2021/07/12 10:55:34;;;;;;;7.30;6.70;;;27.40;81.40;;;;;;5070124;28;20067;-66
2021/07/12 10:58:18;;;;;;;7.72;6.90;;;27.40;81.50;;;;;;5070523;28;20388;-66
2021/07/12 11:00:47;;;;;;;7.40;6.13;;;27.40;82.60;;;;;;5070887;28;20036;-66
2021/07/12 11:03:42;;;;;;;6.70;6.10;;;27.60;82.50;;;;;;5069317;28;20657;-66
2021/07/12 11:06:09;;;;;;;7.72;6.88;;;27.60;81.80;;;;;;5071479;28;20366;-66
2021/07/12 11:08:49;;;;;;;7.38;6.65;;;27.60;81.90;;;;;;5051793;28;20085;-66
2021/07/12 11:11:20;;;;;;;7.50;6.78;;;27.60;82.00;;;;;;5071483;28;20159;-66
2021/07/12 11:13:56;;;;;;;7.80;7.10;;;27.60;82.10;;;;;;5070315;28;20040;-66
2021/07/12 11:16:45;;;;;;;7.38;6.68;;;27.60;82.30;;;;;;5069776;28;20419;-66
2021/07/12 11:19:28;;;;;;;8.65;7.53;;;27.70;82.50;;;;;;5069363;28;20089;-66
2021/07/12 11:22:14;;;;;;;10.10;6.65;;;27.70;81.90;;;;;;5070173;28;20496;-66
2021/07/12 11:25:03;;;;;;;7.63;7.03;;;27.60;81.60;;;;;;5052311;28;20055;-67
2021/07/12 11:27:39;;;;;;;7.97;7.22;;;27.60;82.10;;;;;;5070569;28;20033;-65
2021/07/12 11:30:28;;;;;;;7.95;7.20;;;27.70;82.10;;;;;;5055015;28;20029;-67
2021/07/12 11:32:54;;;;;;;8.60;7.43;;;27.70;81.60;;;;;;5073008;28;20048;-65
2021/07/12 11:35:20;;;;;;;8.60;7.80;;;27.70;82.10;;;;;;5075551;28;20031;-66
2021/07/12 11:37:46;;;;;;;7.28;6.57;;;27.70;82.60;;;;;;5072074;28;20044;-66
2021/07/12 11:40:12;;;;;;;7.18;6.50;;;27.80;82.90;;;;;;5075432;28;20032;-66
2021/07/12 11:42:40;;;;;;;7.90;7.13;;;27.80;82.40;;;;;;5072715;28;20041;-66
2021/07/12 11:45:11;;;;;;;7.70;7.00;;;27.80;82.60;;;;;;5075041;28;20047;-66
2021/07/12 11:47:39;;;;;;;8.10;7.30;;;27.80;82.80;;;;;;5071973;28;20116;-65
2021/07/12 11:50:14;;;;;;;7.65;6.95;;;27.80;82.70;;;;;;5073291;28;20043;-66
2021/07/12 11:52:41;;;;;;;8.02;7.22;;;27.80;82.10;;;;;;5068867;28;20041;-67
2021/07/12 11:55:28;;;;;;;8.30;7.50;;;27.90;82.20;;;;;;5061361;28;20051;-66
2021/07/12 11:58:12;;;;;;;8.63;7.72;;;27.90;82.80;;;;;;5073104;28;20047;-64
2021/07/12 12:00:57;;;;;;;8.48;7.70;;;28.00;82.30;;;;;;5070823;28;20047;-65
2021/07/12 12:03:41;;;;;;;7.60;6.90;;;28.00;83.00;;;;;;5071532;28;20071;-65
2021/07/12 12:06:25;;;;;;;7.88;7.18;;;28.20;82.50;;;;;;5073536;28;20114;-65
2021/07/12 12:09:09;;;;;;;7.18;6.57;;;28.20;83.10;;;;;;5073355;28;20075;-65
2021/07/12 12:11:53;;;;;;;8.38;7.57;;;28.30;81.90;;;;;;5068315;28;20613;-66
2021/07/12 12:14:38;;;;;;;7.45;6.70;;;28.30;81.70;;;;;;5064425;28;20059;-66
2021/07/12 12:17:23;;;;;;;8.38;7.63;;;28.40;81.00;;;;;;5063289;28;20035;-66
2021/07/12 12:20:12;;;;;;;8.15;7.43;;;28.50;80.30;;;;;;5067235;28;20055;-65
2021/07/12 12:22:58;;;;;;;7.90;7.18;;;28.60;79.90;;;;;;5066499;28;20149;-66
2021/07/12 12:25:54;;;;;;;7.57;6.88;;;28.70;79.80;;;;;;5072496;28;20078;-66
2021/07/12 12:28:44;;;;;;;8.43;7.22;;;28.70;79.30;;;;;;5061034;28;20044;-66
2021/07/12 12:31:30;;;;;;;7.88;7.18;;;28.80;78.00;;;;;;5050580;28;20501;-66
2021/07/12 12:34:14;;;;;;;7.95;7.25;;;28.80;77.00;;;;;;5051598;28;20047;-67
2021/07/12 12:36:44;;;;;;;7.97;7.15;;;28.80;77.80;;;;;;5070288;28;20024;-66
2021/07/12 12:39:13;;;;;;;8.02;7.28;;;28.80;77.30;;;;;;5064036;28;20386;-66
2021/07/12 12:41:50;;;;;;;7.35;6.75;;;28.80;77.20;;;;;;5063746;28;20068;-66
2021/07/12 12:44:18;;;;;;;7.55;6.85;;;28.80;77.40;;;;;;5072319;28;20064;-66
2021/07/12 12:46:54;;;;;;;8.05;7.25;;;28.80;75.70;;;;;;5071396;28;20024;-66
2021/07/12 12:49:28;;;;;;;7.57;6.90;;;28.80;74.60;;;;;;5071218;28;20025;-66
2021/07/12 12:52:15;;;;;;;7.25;6.65;;;28.90;75.10;;;;;;5061729;28;20036;-66
2021/07/12 12:54:43;;;;;;;8.13;7.32;;;28.90;75.40;;;;;;5063299;28;20115;-66
2021/07/12 12:57:10;;;;;;;7.22;6.53;;;28.90;75.10;;;;;;5071166;28;20025;-66
2021/07/12 12:59:38;;;;;;;7.03;6.40;;;28.90;74.90;;;;;;5069756;28;20029;-66
2021/07/12 13:02:07;;;;;;;9.00;6.43;;;29.00;74.40;;;;;;5066223;28;20104;-66
2021/07/12 13:04:52;;;;;;;7.78;7.15;;;29.00;73.40;;;;;;5068576;28;20384;-66
2021/07/12 13:07:28;;;;;;;7.35;6.75;;;29.10;74.20;;;;;;5068502;28;20522;-67
2021/07/12 13:10:08;;;;;;;7.10;6.40;;;29.10;74.10;;;;;;5061284;28;20432;-66
2021/07/12 13:12:38;;;;;;;6.38;5.82;;;29.10;72.90;;;;;;5063757;28;20033;-66
2021/07/12 13:15:07;;;;;;;8.18;7.35;;;29.20;72.30;;;;;;5068245;28;20020;-66
2021/07/12 13:17:36;;;;;;;7.18;6.53;;;29.30;73.30;;;;;;5061794;28;20048;-66
2021/07/12 13:20:07;;;;;;;7.80;7.00;;;29.40;72.60;;;;;;5063939;28;20044;-66
2021/07/12 13:22:37;;;;;;;7.30;6.60;;;29.60;72.30;;;;;;5067565;28;20119;-64
2021/07/12 13:25:15;;;;;;;7.68;6.97;;;29.60;72.00;;;;;;5072990;28;20085;-65
2021/07/12 13:27:49;;;;;;;7.65;6.95;;;29.50;70.90;;;;;;5069965;28;20036;-65
2021/07/12 13:30:15;;;;;;;;;;;29.40;71.60;;;;;;5072232;28;20512;-65
2021/07/12 13:32:59;;;;;;;8.45;6.88;;;29.30;71.00;;;;;;5056283;28;19977;-65
2021/07/12 13:35:30;;;;;;;7.13;6.43;;;29.10;71.20;;;;;;5064339;28;20018;-65
2021/07/12 13:37:58;;;;;;;7.57;6.88;;;29.10;71.20;;;;;;5045651;28;20056;-65
2021/07/12 13:40:25;;;;;;;7.43;6.72;;;29.20;71.80;;;;;;5068070;28;20021;-67
2021/07/12 13:42:51;;;;;;;8.20;7.40;;;29.20;71.80;;;;;;5065128;28;20033;-65
2021/07/12 13:45:19;;;;;;;8.35;7.60;;;29.10;71.80;;;;;;5066818;28;20021;-65
2021/07/12 13:47:45;;;;;;;8.00;7.28;;;29.10;71.90;;;;;;5054800;28;20978;-66
2021/07/12 13:50:17;;;;;;;7.65;6.97;;;29.20;70.80;;;;;;5060966;28;20228;-66
2021/07/12 13:52:44;;;;;;;7.90;7.15;;;29.30;71.30;;;;;;5064987;28;20059;-65
2021/07/12 13:55:10;;;;;;;7.50;6.50;;;29.30;71.00;;;;;;5064998;28;20028;-66
2021/07/12 13:57:36;;;;;;;8.02;7.32;;;29.20;71.50;;;;;;5064787;28;20044;-66
2021/07/12 14:00:06;;;;;;;7.82;7.13;;;29.10;71.40;;;;;;5066210;28;20029;-65
2021/07/12 14:02:31;;;;;;;7.90;7.07;;;29.00;71.20;;;;;;5064063;28;20032;-66
2021/07/12 14:04:57;;;;;;;7.38;6.68;;;29.00;71.40;;;;;;5065188;28;20492;-66
2021/07/12 14:07:22;;;;;;;7.68;6.88;;;28.80;70.70;;;;;;5067295;28;20163;-65
2021/07/12 14:09:48;;;;;;;8.80;7.13;;;28.70;71.50;;;;;;5068812;28;20484;-65
2021/07/12 14:12:14;;;;;;;10.63;7.85;;;28.60;72.10;;;;;;5069073;28;20067;-66
2021/07/12 14:14:40;;;;;;;10.48;8.18;;;28.50;73.20;;;;;;5065008;28;20512;-65
2021/07/12 14:17:07;;;;;;;9.05;8.25;;;28.30;74.50;;;;;;5063577;28;20388;-65